sensor_id;sensor_type;location;lat;lon;timestamp;temperature;humidity
18898;DHT22;9581;49.484;8.556;2023-06-22T00:00:46;23.90;99.90
18898;DHT22;9581;49.484;8.556;2023-06-22T00:03:13;24.00;99.90
18898;DHT22;9581;49.484;8.556;2023-06-22T00:05:39;24.00;99.90
18898;DHT22;9581;49.484;8.556;2023-06-22T00:08:06;24.00;99.90
18898;DHT22;9581;49.484;8.556;2023-06-22T00:10:33;24.00;99.90
18898;DHT22;9581;49.484;8.556;2023-06-22T00:13:00;24.00;99.90
18898;DHT22;9581;49.484;8.556;2023-06-22T00:15:27;24.10;99.90
18898;DHT22;9581;49.484;8.556;2023-06-22T00:17:55;24.10;99.90
18898;DHT22;9581;49.484;8.556;2023-06-22T00:20:24;24.10;99.90
18898;DHT22;9581;49.484;8.556;2023-06-22T00:22:53;24.00;99.90
18898;DHT22;9581;49.484;8.556;2023-06-22T00:25:20;24.00;99.90
18898;DHT22;9581;49.484;8.556;2023-06-22T00:27:47;24.10;99.90
18898;DHT22;9581;49.484;8.556;2023-06-22T00:30:14;24.00;99.90
18898;DHT22;9581;49.484;8.556;2023-06-22T00:32:42;23.90;99.90
18898;DHT22;9581;49.484;8.556;2023-06-22T00:35:10;23.80;99.90
18898;DHT22;9581;49.484;8.556;2023-06-22T00:37:37;24.00;99.90
18898;DHT22;9581;49.484;8.556;2023-06-22T00:40:08;24.00;99.90
18898;DHT22;9581;49.484;8.556;2023-06-22T00:42:36;24.00;99.90
18898;DHT22;9581;49.484;8.556;2023-06-22T00:45:04;24.00;99.90
18898;DHT22;9581;49.484;8.556;2023-06-22T00:47:31;24.00;99.90
18898;DHT22;9581;49.484;8.556;2023-06-22T00:49:58;23.80;99.90
18898;DHT22;9581;49.484;8.556;2023-06-22T00:52:27;23.90;99.90
18898;DHT22;9581;49.484;8.556;2023-06-22T00:54:56;23.90;99.90
18898;DHT22;9581;49.484;8.556;2023-06-22T00:57:24;24.00;99.90
18898;DHT22;9581;49.484;8.556;2023-06-22T00:59:54;24.00;99.90
18898;DHT22;9581;49.484;8.556;2023-06-22T01:02:21;23.70;99.90
18898;DHT22;9581;49.484;8.556;2023-06-22T01:04:47;23.70;99.90
18898;DHT22;9581;49.484;8.556;2023-06-22T01:07:20;23.50;99.90
18898;DHT22;9581;49.484;8.556;2023-06-22T01:09:57;23.30;99.90
18898;DHT22;9581;49.484;8.556;2023-06-22T01:12:24;23.00;99.90
18898;DHT22;9581;49.484;8.556;2023-06-22T01:14:57;23.20;99.90
18898;DHT22;9581;49.484;8.556;2023-06-22T01:17:24;23.20;99.90
18898;DHT22;9581;49.484;8.556;2023-06-22T01:19:54;23.20;99.90
18898;DHT22;9581;49.484;8.556;2023-06-22T01:22:24;23.10;99.90
18898;DHT22;9581;49.484;8.556;2023-06-22T01:25:00;23.00;99.90
18898;DHT22;9581;49.484;8.556;2023-06-22T01:27:39;23.10;99.90
18898;DHT22;9581;49.484;8.556;2023-06-22T01:30:10;23.30;99.90
18898;DHT22;9581;49.484;8.556;2023-06-22T01:32:39;23.40;99.90
18898;DHT22;9581;49.484;8.556;2023-06-22T01:35:08;23.40;99.90
18898;DHT22;9581;49.484;8.556;2023-06-22T01:37:37;23.20;99.90
18898;DHT22;9581;49.484;8.556;2023-06-22T01:40:05;22.90;99.90
18898;DHT22;9581;49.484;8.556;2023-06-22T01:42:34;23.00;99.90
18898;DHT22;9581;49.484;8.556;2023-06-22T01:45:02;22.80;99.90
18898;DHT22;9581;49.484;8.556;2023-06-22T01:47:30;22.90;99.90
18898;DHT22;9581;49.484;8.556;2023-06-22T01:49:57;22.90;99.90
18898;DHT22;9581;49.484;8.556;2023-06-22T01:52:24;22.90;99.90
18898;DHT22;9581;49.484;8.556;2023-06-22T01:54:51;23.10;99.90
18898;DHT22;9581;49.484;8.556;2023-06-22T01:57:18;23.00;99.90
18898;DHT22;9581;49.484;8.556;2023-06-22T01:59:50;23.00;99.90
18898;DHT22;9581;49.484;8.556;2023-06-22T02:02:20;22.90;99.90
18898;DHT22;9581;49.484;8.556;2023-06-22T02:04:57;22.90;99.90
18898;DHT22;9581;49.484;8.556;2023-06-22T02:07:29;22.70;99.90
18898;DHT22;9581;49.484;8.556;2023-06-22T02:09:58;22.90;99.90
18898;DHT22;9581;49.484;8.556;2023-06-22T02:12:26;22.90;99.90
18898;DHT22;9581;49.484;8.556;2023-06-22T02:14:54;22.80;99.90
18898;DHT22;9581;49.484;8.556;2023-06-22T02:17:22;22.80;99.90
18898;DHT22;9581;49.484;8.556;2023-06-22T02:19:49;22.80;99.90
18898;DHT22;9581;49.484;8.556;2023-06-22T02:22:18;22.80;99.90
18898;DHT22;9581;49.484;8.556;2023-06-22T02:24:44;22.80;99.90
18898;DHT22;9581;49.484;8.556;2023-06-22T02:27:11;22.80;99.90
18898;DHT22;9581;49.484;8.556;2023-06-22T02:29:38;22.80;99.90
18898;DHT22;9581;49.484;8.556;2023-06-22T02:32:05;22.60;99.90
18898;DHT22;9581;49.484;8.556;2023-06-22T02:34:32;22.70;99.90
18898;DHT22;9581;49.484;8.556;2023-06-22T02:36:59;22.60;99.90
18898;DHT22;9581;49.484;8.556;2023-06-22T02:39:41;22.60;99.90
18898;DHT22;9581;49.484;8.556;2023-06-22T02:42:08;22.80;99.90
18898;DHT22;9581;49.484;8.556;2023-06-22T02:44:36;22.70;99.90
18898;DHT22;9581;49.484;8.556;2023-06-22T02:47:04;22.70;99.90
18898;DHT22;9581;49.484;8.556;2023-06-22T02:49:31;22.90;99.90
18898;DHT22;9581;49.484;8.556;2023-06-22T02:51:58;22.90;99.90
18898;DHT22;9581;49.484;8.556;2023-06-22T02:54:24;22.80;99.90
18898;DHT22;9581;49.484;8.556;2023-06-22T02:56:52;22.80;99.90
18898;DHT22;9581;49.484;8.556;2023-06-22T02:59:19;22.80;99.90
18898;DHT22;9581;49.484;8.556;2023-06-22T03:01:49;22.70;99.90
18898;DHT22;9581;49.484;8.556;2023-06-22T03:04:16;22.60;99.90
18898;DHT22;9581;49.484;8.556;2023-06-22T03:06:42;22.60;99.90
18898;DHT22;9581;49.484;8.556;2023-06-22T03:09:09;22.60;99.90
18898;DHT22;9581;49.484;8.556;2023-06-22T03:11:36;22.60;99.90
18898;DHT22;9581;49.484;8.556;2023-06-22T03:14:04;22.30;99.90
18898;DHT22;9581;49.484;8.556;2023-06-22T03:16:31;22.50;99.90
18898;DHT22;9581;49.484;8.556;2023-06-22T03:18:58;22.60;99.90
18898;DHT22;9581;49.484;8.556;2023-06-22T03:21:27;22.30;99.90
18898;DHT22;9581;49.484;8.556;2023-06-22T03:23:54;22.40;99.90
18898;DHT22;9581;49.484;8.556;2023-06-22T03:26:21;22.30;99.90
18898;DHT22;9581;49.484;8.556;2023-06-22T03:28:48;22.30;99.90
18898;DHT22;9581;49.484;8.556;2023-06-22T03:31:16;22.40;99.90
18898;DHT22;9581;49.484;8.556;2023-06-22T03:33:47;22.20;99.90
18898;DHT22;9581;49.484;8.556;2023-06-22T03:36:14;22.10;99.90
18898;DHT22;9581;49.484;8.556;2023-06-22T03:38:44;22.10;99.90
18898;DHT22;9581;49.484;8.556;2023-06-22T03:41:11;21.90;99.90
18898;DHT22;9581;49.484;8.556;2023-06-22T03:43:38;22.00;99.90
18898;DHT22;9581;49.484;8.556;2023-06-22T03:46:04;22.10;99.90
18898;DHT22;9581;49.484;8.556;2023-06-22T03:48:33;22.10;99.90
18898;DHT22;9581;49.484;8.556;2023-06-22T03:51:00;22.20;99.90
18898;DHT22;9581;49.484;8.556;2023-06-22T03:53:28;22.30;99.90
18898;DHT22;9581;49.484;8.556;2023-06-22T03:55:55;22.40;99.90
18898;DHT22;9581;49.484;8.556;2023-06-22T03:58:22;22.30;99.90
18898;DHT22;9581;49.484;8.556;2023-06-22T04:00:50;22.30;99.90
18898;DHT22;9581;49.484;8.556;2023-06-22T04:03:18;22.30;99.90
18898;DHT22;9581;49.484;8.556;2023-06-22T04:05:47;22.30;99.90
18898;DHT22;9581;49.484;8.556;2023-06-22T04:08:14;22.10;99.90
18898;DHT22;9581;49.484;8.556;2023-06-22T04:10:41;22.00;99.90
18898;DHT22;9581;49.484;8.556;2023-06-22T04:13:08;22.10;99.90
18898;DHT22;9581;49.484;8.556;2023-06-22T04:15:35;21.90;99.90
18898;DHT22;9581;49.484;8.556;2023-06-22T04:18:01;22.00;99.90
18898;DHT22;9581;49.484;8.556;2023-06-22T04:20:28;22.00;99.90
18898;DHT22;9581;49.484;8.556;2023-06-22T04:22:56;22.00;99.90
18898;DHT22;9581;49.484;8.556;2023-06-22T04:25:23;21.90;99.90
18898;DHT22;9581;49.484;8.556;2023-06-22T04:27:50;22.00;99.90
18898;DHT22;9581;49.484;8.556;2023-06-22T04:30:17;22.10;99.90
18898;DHT22;9581;49.484;8.556;2023-06-22T04:32:44;22.20;99.90
18898;DHT22;9581;49.484;8.556;2023-06-22T04:35:11;22.10;99.90
18898;DHT22;9581;49.484;8.556;2023-06-22T04:37:41;22.20;99.90
18898;DHT22;9581;49.484;8.556;2023-06-22T04:40:10;22.30;99.90
18898;DHT22;9581;49.484;8.556;2023-06-22T04:42:40;22.30;99.90
18898;DHT22;9581;49.484;8.556;2023-06-22T04:45:18;22.20;99.90
18898;DHT22;9581;49.484;8.556;2023-06-22T04:47:46;22.20;99.90
18898;DHT22;9581;49.484;8.556;2023-06-22T04:50:12;22.40;99.90
18898;DHT22;9581;49.484;8.556;2023-06-22T04:52:39;22.50;99.90
18898;DHT22;9581;49.484;8.556;2023-06-22T04:55:08;22.50;99.90
18898;DHT22;9581;49.484;8.556;2023-06-22T04:57:35;22.50;99.90
18898;DHT22;9581;49.484;8.556;2023-06-22T05:00:05;22.50;99.90
18898;DHT22;9581;49.484;8.556;2023-06-22T05:02:38;22.60;99.90
18898;DHT22;9581;49.484;8.556;2023-06-22T05:05:05;22.60;99.90
18898;DHT22;9581;49.484;8.556;2023-06-22T05:07:33;22.60;99.90
18898;DHT22;9581;49.484;8.556;2023-06-22T05:10:00;22.60;99.90
18898;DHT22;9581;49.484;8.556;2023-06-22T05:12:29;22.60;99.90
18898;DHT22;9581;49.484;8.556;2023-06-22T05:14:56;22.50;99.90
18898;DHT22;9581;49.484;8.556;2023-06-22T05:17:23;22.50;99.90
18898;DHT22;9581;49.484;8.556;2023-06-22T05:19:50;22.60;99.90
18898;DHT22;9581;49.484;8.556;2023-06-22T05:22:16;22.70;99.90
18898;DHT22;9581;49.484;8.556;2023-06-22T05:24:43;22.70;99.90
18898;DHT22;9581;49.484;8.556;2023-06-22T05:27:10;22.70;99.90
18898;DHT22;9581;49.484;8.556;2023-06-22T05:29:39;22.80;99.90
18898;DHT22;9581;49.484;8.556;2023-06-22T05:32:07;22.80;99.90
18898;DHT22;9581;49.484;8.556;2023-06-22T05:34:33;22.90;99.90
18898;DHT22;9581;49.484;8.556;2023-06-22T05:37:01;22.90;99.90
18898;DHT22;9581;49.484;8.556;2023-06-22T05:39:28;22.90;99.90
18898;DHT22;9581;49.484;8.556;2023-06-22T05:41:55;23.00;99.90
18898;DHT22;9581;49.484;8.556;2023-06-22T05:44:21;23.10;99.90
18898;DHT22;9581;49.484;8.556;2023-06-22T05:46:50;23.10;99.90
18898;DHT22;9581;49.484;8.556;2023-06-22T05:49:16;23.20;99.90
18898;DHT22;9581;49.484;8.556;2023-06-22T05:51:43;23.20;99.90
18898;DHT22;9581;49.484;8.556;2023-06-22T05:54:10;23.20;99.90
18898;DHT22;9581;49.484;8.556;2023-06-22T05:56:39;23.20;99.90
18898;DHT22;9581;49.484;8.556;2023-06-22T05:59:05;23.30;99.90
18898;DHT22;9581;49.484;8.556;2023-06-22T06:01:32;23.30;99.90
18898;DHT22;9581;49.484;8.556;2023-06-22T06:04:03;23.30;99.90
18898;DHT22;9581;49.484;8.556;2023-06-22T06:06:30;23.40;99.90
18898;DHT22;9581;49.484;8.556;2023-06-22T06:08:57;23.40;99.90
18898;DHT22;9581;49.484;8.556;2023-06-22T06:11:25;23.40;99.90
18898;DHT22;9581;49.484;8.556;2023-06-22T06:13:52;23.50;99.90
18898;DHT22;9581;49.484;8.556;2023-06-22T06:16:18;23.50;99.90
18898;DHT22;9581;49.484;8.556;2023-06-22T06:18:45;23.50;99.90
18898;DHT22;9581;49.484;8.556;2023-06-22T06:21:13;23.60;99.90
18898;DHT22;9581;49.484;8.556;2023-06-22T06:23:40;23.60;99.90
18898;DHT22;9581;49.484;8.556;2023-06-22T06:26:07;23.60;99.90
18898;DHT22;9581;49.484;8.556;2023-06-22T06:28:34;23.70;99.90
18898;DHT22;9581;49.484;8.556;2023-06-22T06:31:01;23.80;99.90
18898;DHT22;9581;49.484;8.556;2023-06-22T06:33:32;23.80;99.90
18898;DHT22;9581;49.484;8.556;2023-06-22T06:35:59;23.90;99.90
18898;DHT22;9581;49.484;8.556;2023-06-22T06:38:30;23.90;99.90
18898;DHT22;9581;49.484;8.556;2023-06-22T06:40:57;24.00;99.90
18898;DHT22;9581;49.484;8.556;2023-06-22T06:43:24;24.00;99.90
18898;DHT22;9581;49.484;8.556;2023-06-22T06:45:51;24.10;99.90
18898;DHT22;9581;49.484;8.556;2023-06-22T06:48:18;24.10;99.90
18898;DHT22;9581;49.484;8.556;2023-06-22T06:50:45;24.20;99.90
18898;DHT22;9581;49.484;8.556;2023-06-22T06:53:11;24.20;99.90
18898;DHT22;9581;49.484;8.556;2023-06-22T06:55:39;24.30;99.90
18898;DHT22;9581;49.484;8.556;2023-06-22T06:58:06;24.40;99.90
18898;DHT22;9581;49.484;8.556;2023-06-22T07:00:35;24.40;99.90
18898;DHT22;9581;49.484;8.556;2023-06-22T07:03:02;24.50;99.90
18898;DHT22;9581;49.484;8.556;2023-06-22T07:05:29;24.60;99.90
18898;DHT22;9581;49.484;8.556;2023-06-22T07:07:56;24.60;99.90
18898;DHT22;9581;49.484;8.556;2023-06-22T07:10:22;24.80;99.90
18898;DHT22;9581;49.484;8.556;2023-06-22T07:12:51;24.80;99.90
18898;DHT22;9581;49.484;8.556;2023-06-22T07:15:18;24.80;99.90
18898;DHT22;9581;49.484;8.556;2023-06-22T07:17:45;25.00;99.90
18898;DHT22;9581;49.484;8.556;2023-06-22T07:20:12;25.00;99.90
18898;DHT22;9581;49.484;8.556;2023-06-22T07:22:40;25.10;99.90
18898;DHT22;9581;49.484;8.556;2023-06-22T07:25:08;25.10;99.90
18898;DHT22;9581;49.484;8.556;2023-06-22T07:27:36;25.20;99.90
18898;DHT22;9581;49.484;8.556;2023-06-22T07:30:09;25.30;99.90
18898;DHT22;9581;49.484;8.556;2023-06-22T07:32:36;25.40;99.90
18898;DHT22;9581;49.484;8.556;2023-06-22T07:35:03;25.50;99.90
18898;DHT22;9581;49.484;8.556;2023-06-22T07:37:31;25.50;99.90
18898;DHT22;9581;49.484;8.556;2023-06-22T07:39:59;25.60;99.90
18898;DHT22;9581;49.484;8.556;2023-06-22T07:42:26;25.60;99.90
18898;DHT22;9581;49.484;8.556;2023-06-22T07:44:58;25.60;99.90
18898;DHT22;9581;49.484;8.556;2023-06-22T07:47:26;25.80;99.90
18898;DHT22;9581;49.484;8.556;2023-06-22T07:49:53;25.90;99.90
18898;DHT22;9581;49.484;8.556;2023-06-22T07:52:23;26.00;99.90
18898;DHT22;9581;49.484;8.556;2023-06-22T07:54:50;26.30;99.90
18898;DHT22;9581;49.484;8.556;2023-06-22T07:57:17;26.60;99.90
18898;DHT22;9581;49.484;8.556;2023-06-22T07:59:44;26.60;99.90
18898;DHT22;9581;49.484;8.556;2023-06-22T08:02:11;26.70;99.90
18898;DHT22;9581;49.484;8.556;2023-06-22T08:04:39;26.70;99.90
18898;DHT22;9581;49.484;8.556;2023-06-22T08:07:07;26.80;99.90
18898;DHT22;9581;49.484;8.556;2023-06-22T08:09:33;26.80;99.90
18898;DHT22;9581;49.484;8.556;2023-06-22T08:12:01;26.80;99.90
18898;DHT22;9581;49.484;8.556;2023-06-22T08:14:29;26.80;99.90
18898;DHT22;9581;49.484;8.556;2023-06-22T08:16:56;26.80;99.90
18898;DHT22;9581;49.484;8.556;2023-06-22T08:19:23;26.80;99.90
18898;DHT22;9581;49.484;8.556;2023-06-22T08:21:51;26.80;99.90
18898;DHT22;9581;49.484;8.556;2023-06-22T08:24:18;26.90;99.90
18898;DHT22;9581;49.484;8.556;2023-06-22T08:26:45;27.00;99.90
18898;DHT22;9581;49.484;8.556;2023-06-22T08:29:11;27.00;99.90
18898;DHT22;9581;49.484;8.556;2023-06-22T08:31:38;27.00;99.90
18898;DHT22;9581;49.484;8.556;2023-06-22T08:34:05;27.00;99.90
18898;DHT22;9581;49.484;8.556;2023-06-22T08:36:32;27.00;99.90
18898;DHT22;9581;49.484;8.556;2023-06-22T08:39:08;27.00;99.90
18898;DHT22;9581;49.484;8.556;2023-06-22T08:41:34;27.00;99.90
18898;DHT22;9581;49.484;8.556;2023-06-22T08:44:01;27.10;99.90
18898;DHT22;9581;49.484;8.556;2023-06-22T08:46:29;27.20;99.90
18898;DHT22;9581;49.484;8.556;2023-06-22T08:48:59;27.30;99.90
18898;DHT22;9581;49.484;8.556;2023-06-22T08:51:26;27.40;99.90
18898;DHT22;9581;49.484;8.556;2023-06-22T08:53:54;27.40;99.90
18898;DHT22;9581;49.484;8.556;2023-06-22T08:56:22;27.50;99.90
18898;DHT22;9581;49.484;8.556;2023-06-22T08:58:49;27.50;99.90
18898;DHT22;9581;49.484;8.556;2023-06-22T09:01:15;27.60;99.90
18898;DHT22;9581;49.484;8.556;2023-06-22T09:03:42;27.60;99.90
18898;DHT22;9581;49.484;8.556;2023-06-22T09:06:09;27.70;99.90
18898;DHT22;9581;49.484;8.556;2023-06-22T09:08:36;27.80;99.90
18898;DHT22;9581;49.484;8.556;2023-06-22T09:11:03;27.80;99.90
18898;DHT22;9581;49.484;8.556;2023-06-22T09:13:33;27.80;99.90
18898;DHT22;9581;49.484;8.556;2023-06-22T09:16:00;27.60;99.90
18898;DHT22;9581;49.484;8.556;2023-06-22T09:18:27;27.70;99.90
18898;DHT22;9581;49.484;8.556;2023-06-22T09:20:54;27.80;99.90
18898;DHT22;9581;49.484;8.556;2023-06-22T09:23:21;27.90;99.90
18898;DHT22;9581;49.484;8.556;2023-06-22T09:25:48;28.10;99.90
18898;DHT22;9581;49.484;8.556;2023-06-22T09:28:15;28.10;99.90
18898;DHT22;9581;49.484;8.556;2023-06-22T09:30:44;28.20;99.90
18898;DHT22;9581;49.484;8.556;2023-06-22T09:33:11;28.30;99.90
18898;DHT22;9581;49.484;8.556;2023-06-22T09:35:38;28.50;99.90
18898;DHT22;9581;49.484;8.556;2023-06-22T09:38:06;28.50;99.90
18898;DHT22;9581;49.484;8.556;2023-06-22T09:40:33;28.50;99.90
18898;DHT22;9581;49.484;8.556;2023-06-22T09:43:05;28.50;99.90
18898;DHT22;9581;49.484;8.556;2023-06-22T09:45:32;28.60;99.90
18898;DHT22;9581;49.484;8.556;2023-06-22T09:48:00;28.70;99.90
18898;DHT22;9581;49.484;8.556;2023-06-22T09:50:27;28.80;99.90
18898;DHT22;9581;49.484;8.556;2023-06-22T09:52:54;28.80;99.90
18898;DHT22;9581;49.484;8.556;2023-06-22T09:55:21;28.70;99.90
18898;DHT22;9581;49.484;8.556;2023-06-22T09:57:47;28.80;99.90
18898;DHT22;9581;49.484;8.556;2023-06-22T10:00:16;28.90;99.90
18898;DHT22;9581;49.484;8.556;2023-06-22T10:02:44;28.90;99.90
18898;DHT22;9581;49.484;8.556;2023-06-22T10:05:12;29.10;99.90
18898;DHT22;9581;49.484;8.556;2023-06-22T10:07:39;29.30;99.90
18898;DHT22;9581;49.484;8.556;2023-06-22T10:10:09;29.40;99.90
18898;DHT22;9581;49.484;8.556;2023-06-22T10:12:36;29.60;99.90
18898;DHT22;9581;49.484;8.556;2023-06-22T10:15:03;29.60;99.90
18898;DHT22;9581;49.484;8.556;2023-06-22T10:17:30;29.60;99.90
18898;DHT22;9581;49.484;8.556;2023-06-22T10:19:57;29.60;99.90
18898;DHT22;9581;49.484;8.556;2023-06-22T10:22:25;29.50;99.90
18898;DHT22;9581;49.484;8.556;2023-06-22T10:24:52;29.30;99.90
18898;DHT22;9581;49.484;8.556;2023-06-22T10:27:19;29.30;99.90
18898;DHT22;9581;49.484;8.556;2023-06-22T10:29:45;29.20;99.90
18898;DHT22;9581;49.484;8.556;2023-06-22T10:32:12;29.30;99.90
18898;DHT22;9581;49.484;8.556;2023-06-22T10:34:39;29.50;99.90
18898;DHT22;9581;49.484;8.556;2023-06-22T10:37:06;29.60;99.90
18898;DHT22;9581;49.484;8.556;2023-06-22T10:39:34;29.50;99.90
18898;DHT22;9581;49.484;8.556;2023-06-22T10:42:01;29.40;99.90
18898;DHT22;9581;49.484;8.556;2023-06-22T10:44:28;29.30;99.90
18898;DHT22;9581;49.484;8.556;2023-06-22T10:46:55;29.30;99.90
18898;DHT22;9581;49.484;8.556;2023-06-22T10:49:21;29.30;99.90
18898;DHT22;9581;49.484;8.556;2023-06-22T10:51:48;29.40;99.90
18898;DHT22;9581;49.484;8.556;2023-06-22T10:54:15;29.40;99.90
18898;DHT22;9581;49.484;8.556;2023-06-22T10:56:45;29.70;99.90
18898;DHT22;9581;49.484;8.556;2023-06-22T10:59:11;29.80;99.90
18898;DHT22;9581;49.484;8.556;2023-06-22T11:01:38;30.00;99.90
18898;DHT22;9581;49.484;8.556;2023-06-22T11:04:05;30.00;99.90
18898;DHT22;9581;49.484;8.556;2023-06-22T11:06:32;29.90;99.90
18898;DHT22;9581;49.484;8.556;2023-06-22T11:08:59;29.90;99.90
18898;DHT22;9581;49.484;8.556;2023-06-22T11:11:26;29.80;99.90
18898;DHT22;9581;49.484;8.556;2023-06-22T11:13:54;29.90;99.90
18898;DHT22;9581;49.484;8.556;2023-06-22T11:16:21;29.90;99.90
18898;DHT22;9581;49.484;8.556;2023-06-22T11:18:47;29.80;99.90
18898;DHT22;9581;49.484;8.556;2023-06-22T11:21:14;29.80;99.90
18898;DHT22;9581;49.484;8.556;2023-06-22T11:23:42;29.90;99.90
18898;DHT22;9581;49.484;8.556;2023-06-22T11:26:09;29.80;99.90
18898;DHT22;9581;49.484;8.556;2023-06-22T11:28:35;29.80;99.90
18898;DHT22;9581;49.484;8.556;2023-06-22T11:31:03;30.10;99.90
18898;DHT22;9581;49.484;8.556;2023-06-22T11:33:32;30.00;99.90
18898;DHT22;9581;49.484;8.556;2023-06-22T11:35:59;30.20;99.90
18898;DHT22;9581;49.484;8.556;2023-06-22T11:38:25;30.30;99.90
18898;DHT22;9581;49.484;8.556;2023-06-22T11:40:52;30.40;99.90
18898;DHT22;9581;49.484;8.556;2023-06-22T11:43:19;30.20;99.90
18898;DHT22;9581;49.484;8.556;2023-06-22T11:45:46;30.10;99.90
18898;DHT22;9581;49.484;8.556;2023-06-22T11:48:14;30.00;99.90
18898;DHT22;9581;49.484;8.556;2023-06-22T11:50:41;30.00;99.90
18898;DHT22;9581;49.484;8.556;2023-06-22T11:53:07;29.90;99.90
18898;DHT22;9581;49.484;8.556;2023-06-22T11:55:34;29.90;99.90
18898;DHT22;9581;49.484;8.556;2023-06-22T11:58:01;29.80;99.90
18898;DHT22;9581;49.484;8.556;2023-06-22T12:00:29;29.80;99.90
18898;DHT22;9581;49.484;8.556;2023-06-22T12:02:56;29.80;99.90
18898;DHT22;9581;49.484;8.556;2023-06-22T12:05:24;29.80;99.90
18898;DHT22;9581;49.484;8.556;2023-06-22T12:07:53;29.90;99.90
18898;DHT22;9581;49.484;8.556;2023-06-22T12:10:20;29.90;99.90
18898;DHT22;9581;49.484;8.556;2023-06-22T12:12:47;29.80;99.90
18898;DHT22;9581;49.484;8.556;2023-06-22T12:15:13;29.70;99.90
18898;DHT22;9581;49.484;8.556;2023-06-22T12:17:40;29.90;99.90
18898;DHT22;9581;49.484;8.556;2023-06-22T12:20:08;30.10;99.90
18898;DHT22;9581;49.484;8.556;2023-06-22T12:22:37;30.10;99.90
18898;DHT22;9581;49.484;8.556;2023-06-22T12:25:04;30.30;99.90
18898;DHT22;9581;49.484;8.556;2023-06-22T12:27:31;30.30;99.90
18898;DHT22;9581;49.484;8.556;2023-06-22T12:29:58;30.30;99.90
18898;DHT22;9581;49.484;8.556;2023-06-22T12:32:25;30.50;99.90
18898;DHT22;9581;49.484;8.556;2023-06-22T12:34:52;30.60;99.90
18898;DHT22;9581;49.484;8.556;2023-06-22T12:37:18;30.60;99.90
18898;DHT22;9581;49.484;8.556;2023-06-22T12:39:46;30.90;99.90
18898;DHT22;9581;49.484;8.556;2023-06-22T12:42:13;30.80;99.90
18898;DHT22;9581;49.484;8.556;2023-06-22T12:44:40;30.60;99.90
18898;DHT22;9581;49.484;8.556;2023-06-22T12:47:07;30.60;99.90
18898;DHT22;9581;49.484;8.556;2023-06-22T12:49:34;31.00;99.90
18898;DHT22;9581;49.484;8.556;2023-06-22T12:52:02;30.60;99.90
18898;DHT22;9581;49.484;8.556;2023-06-22T12:54:29;30.60;99.90
18898;DHT22;9581;49.484;8.556;2023-06-22T12:56:57;30.50;99.90
18898;DHT22;9581;49.484;8.556;2023-06-22T12:59:24;30.50;99.90
18898;DHT22;9581;49.484;8.556;2023-06-22T13:01:51;30.80;99.90
18898;DHT22;9581;49.484;8.556;2023-06-22T13:04:18;31.00;99.90
18898;DHT22;9581;49.484;8.556;2023-06-22T13:06:45;30.50;99.90
18898;DHT22;9581;49.484;8.556;2023-06-22T13:09:14;30.30;99.90
18898;DHT22;9581;49.484;8.556;2023-06-22T13:11:41;30.20;99.90
18898;DHT22;9581;49.484;8.556;2023-06-22T13:14:09;30.30;99.90
18898;DHT22;9581;49.484;8.556;2023-06-22T13:16:36;30.90;99.90
18898;DHT22;9581;49.484;8.556;2023-06-22T13:19:03;31.40;99.90
18898;DHT22;9581;49.484;8.556;2023-06-22T13:21:30;31.80;99.90
18898;DHT22;9581;49.484;8.556;2023-06-22T13:23:58;32.20;99.90
18898;DHT22;9581;49.484;8.556;2023-06-22T13:26:24;32.40;99.90
18898;DHT22;9581;49.484;8.556;2023-06-22T13:28:52;32.60;99.90
18898;DHT22;9581;49.484;8.556;2023-06-22T13:31:20;32.90;99.90
18898;DHT22;9581;49.484;8.556;2023-06-22T13:33:47;33.00;99.90
18898;DHT22;9581;49.484;8.556;2023-06-22T13:36:14;33.10;99.90
18898;DHT22;9581;49.484;8.556;2023-06-22T13:38:42;33.10;99.90
18898;DHT22;9581;49.484;8.556;2023-06-22T13:41:09;33.60;99.90
18898;DHT22;9581;49.484;8.556;2023-06-22T13:43:36;33.90;99.90
18898;DHT22;9581;49.484;8.556;2023-06-22T13:46:03;33.50;99.90
18898;DHT22;9581;49.484;8.556;2023-06-22T13:48:31;32.80;99.90
18898;DHT22;9581;49.484;8.556;2023-06-22T13:50:57;32.50;99.90
18898;DHT22;9581;49.484;8.556;2023-06-22T13:53:24;32.80;99.90
18898;DHT22;9581;49.484;8.556;2023-06-22T13:55:51;32.70;99.90
18898;DHT22;9581;49.484;8.556;2023-06-22T13:58:18;33.20;99.90
18898;DHT22;9581;49.484;8.556;2023-06-22T14:00:46;32.90;99.90
18898;DHT22;9581;49.484;8.556;2023-06-22T14:03:13;32.40;99.90
18898;DHT22;9581;49.484;8.556;2023-06-22T14:05:42;32.10;99.90
18898;DHT22;9581;49.484;8.556;2023-06-22T14:08:09;31.60;99.90
18898;DHT22;9581;49.484;8.556;2023-06-22T14:10:36;31.30;99.90
18898;DHT22;9581;49.484;8.556;2023-06-22T14:13:03;31.00;99.90
18898;DHT22;9581;49.484;8.556;2023-06-22T14:15:31;30.90;99.90
18898;DHT22;9581;49.484;8.556;2023-06-22T14:17:58;30.70;99.90
18898;DHT22;9581;49.484;8.556;2023-06-22T14:20:24;30.60;99.90
18898;DHT22;9581;49.484;8.556;2023-06-22T14:22:53;30.50;99.90
18898;DHT22;9581;49.484;8.556;2023-06-22T14:25:20;30.50;99.90
18898;DHT22;9581;49.484;8.556;2023-06-22T14:27:46;30.30;99.90
18898;DHT22;9581;49.484;8.556;2023-06-22T14:30:13;30.10;99.90
18898;DHT22;9581;49.484;8.556;2023-06-22T14:32:43;30.20;99.90
18898;DHT22;9581;49.484;8.556;2023-06-22T14:35:10;30.20;99.90
18898;DHT22;9581;49.484;8.556;2023-06-22T14:37:38;30.20;99.90
18898;DHT22;9581;49.484;8.556;2023-06-22T14:40:07;30.20;99.90
18898;DHT22;9581;49.484;8.556;2023-06-22T14:42:34;30.10;99.90
18898;DHT22;9581;49.484;8.556;2023-06-22T14:45:01;30.00;99.90
18898;DHT22;9581;49.484;8.556;2023-06-22T14:47:28;29.90;99.90
18898;DHT22;9581;49.484;8.556;2023-06-22T14:49:54;29.80;99.90
18898;DHT22;9581;49.484;8.556;2023-06-22T14:52:21;29.80;99.90
18898;DHT22;9581;49.484;8.556;2023-06-22T14:54:48;29.70;99.90
18898;DHT22;9581;49.484;8.556;2023-06-22T14:57:19;29.60;99.90
18898;DHT22;9581;49.484;8.556;2023-06-22T14:59:48;29.60;99.90
18898;DHT22;9581;49.484;8.556;2023-06-22T15:02:15;29.50;99.90
18898;DHT22;9581;49.484;8.556;2023-06-22T15:04:43;29.50;99.90
18898;DHT22;9581;49.484;8.556;2023-06-22T15:07:10;29.40;99.90
18898;DHT22;9581;49.484;8.556;2023-06-22T15:09:36;29.40;99.90
18898;DHT22;9581;49.484;8.556;2023-06-22T15:12:07;29.40;99.90
18898;DHT22;9581;49.484;8.556;2023-06-22T15:14:38;29.50;99.90
18898;DHT22;9581;49.484;8.556;2023-06-22T15:17:06;29.50;99.90
18898;DHT22;9581;49.484;8.556;2023-06-22T15:19:34;29.80;99.90
18898;DHT22;9581;49.484;8.556;2023-06-22T15:22:02;30.00;99.90
18898;DHT22;9581;49.484;8.556;2023-06-22T15:24:29;30.30;99.90
18898;DHT22;9581;49.484;8.556;2023-06-22T15:26:56;30.50;99.90
18898;DHT22;9581;49.484;8.556;2023-06-22T15:29:23;30.70;99.90
18898;DHT22;9581;49.484;8.556;2023-06-22T15:31:51;30.80;99.90
18898;DHT22;9581;49.484;8.556;2023-06-22T15:34:18;30.80;99.90
18898;DHT22;9581;49.484;8.556;2023-06-22T15:36:45;30.50;99.90
18898;DHT22;9581;49.484;8.556;2023-06-22T15:39:11;30.30;99.90
18898;DHT22;9581;49.484;8.556;2023-06-22T15:41:39;30.30;99.90
18898;DHT22;9581;49.484;8.556;2023-06-22T15:44:06;30.00;99.90
18898;DHT22;9581;49.484;8.556;2023-06-22T15:46:33;29.70;99.90